• Join FlightAware (Why Join?)
  • Login
  • US Flag 
02:17AM EDT


 

Airport Tracker/Info


-or-


 

Live Flight TrackerFlight Track Log ✈ N27FB ✈ 09-Jul-2013 ✈ KBWI - KBED

Flight Track Log - Related Links

Times and Time Zones

All times are in EDT time to prevent confusion due to time zone crossing. See the N27FB flight status page for this flight to view local times or setup timezone preferences in your user account.

Time Position Orientation Groundspeed Altitude Reporting Facility
EDT Latitude Longitude Course Direction KTS MPH feet Rate Location/Type
07:03PM 39.2000 -76.6833 21° North 99 114 1,100  Level Potomac TRACON
07:04PM 39.2333 -76.6667 21° North 126 145 1,800 720 Climbing Potomac TRACON
07:05PM 39.2667 -76.6500 21° North 132 152 2,600 840 Climbing Potomac TRACON
07:06PM 39.2833 -76.6000 67° East 129 148 3,700 840 Climbing Potomac TRACON
07:07PM 39.2833 -76.5500 90° East 141 162 4,400 600 Climbing Potomac TRACON
07:08PM 39.2833 -76.5000 90° East 144 166 5,000 240 Climbing Potomac TRACON
07:09PM 39.2833 -76.4333 90° East 168 193 5,000  Level Potomac TRACON
07:10PM 39.2667 -76.3667 108° East 175 201 5,000  Level Potomac TRACON
07:11PM 39.2667 -76.3167 90° East 176 203 5,000  Level Potomac TRACON
07:12PM 39.2667 -76.2500 90° East 177 204 5,000  Level Potomac TRACON
07:13PM 39.2667 -76.1833 90° East 177 204 5,000  Level Potomac TRACON
07:14PM 39.2667 -76.1167 90° East 176 203 5,000  Level Potomac TRACON
07:16PM 39.3074 -76.0598 83° East  Level Estimated
07:23PM 39.5183 -75.7639 83° East  Level Estimated
07:23PM 39.2333 -75.5833 101° East 169 194 5,000  Level Philadelphia TRACON
07:24PM 39.4816 -75.7316 146° Southeast  Level FlightAware Approximate
07:25PM 39.4448 -75.6993 146° Southeast  Level FlightAware Approximate
07:25PM 39.2676 -75.5036 61° Northeast  Level FlightAware Approximate
07:26PM 39.4755 -75.6577 40° Northeast  Level Estimated
07:27PM 39.4667 -75.6013 101° East  Level FlightAware Approximate
07:28PM 39.4579 -75.5449 101° East  Level FlightAware Approximate
07:32PM 39.4962 -75.2222 49° Northeast  Level Estimated
07:33PM 39.5046 -75.1648 79° East  Level FlightAware Approximate
07:34PM 39.5129 -75.1074 79° East  Level FlightAware Approximate
07:35PM 39.5213 -75.0500 79° East  Level FlightAware Approximate
07:36PM 39.5296 -74.9926 79° East  Level FlightAware Approximate
07:37PM 39.5629 -74.9533 57° Northeast  Level Estimated
07:38PM 39.5835 -74.9013 63° Northeast  Level FlightAware Approximate
07:39PM 39.6041 -74.8494 63° Northeast  Level FlightAware Approximate
07:40PM 39.6247 -74.7974 63° Northeast  Level FlightAware Approximate
07:41PM 39.6583 -74.7584 52° Northeast  Level Estimated
07:42PM 39.6784 -74.7061 63° Northeast  Level FlightAware Approximate
07:43PM 39.7121 -74.6672 57° Northeast  Level Estimated
07:44PM 39.7337 -74.6158 61° Northeast  Level FlightAware Approximate
07:45PM 39.7552 -74.5643 61° Northeast  Level FlightAware Approximate
07:46PM 39.7766 -74.5128 61° Northeast  Level FlightAware Approximate
07:47PM 39.7981 -74.4613 62° Northeast  Level FlightAware Approximate
07:48PM 39.8322 -74.4230 35° Northeast  Level Estimated
07:49PM 39.8676 -74.3866 38° Northeast  Level FlightAware Approximate
07:50PM 39.9029 -74.3502 38° Northeast  Level FlightAware Approximate
07:51PM 39.9382 -74.3138 38° Northeast  Level FlightAware Approximate
07:52PM 39.9736 -74.2773 38° Northeast  Level FlightAware Approximate
07:53PM 40.0075 -74.2387 43° Northeast  Level Estimated
07:53PM 40.0667 -74.1833 49° Northeast 165 190 5,100  Level New York TRACON
07:54PM 40.0411 -74.1995 42° Northeast  Level FlightAware Approximate
07:54PM 40.1167 -74.1500 27° Northeast 168 193 5,000  Level New York TRACON
07:55PM 40.0750 -74.1608 21° North  Level Estimated
07:55PM 40.1500 -74.1333 21° North 166 191 5,000  Level New York TRACON
07:56PM 40.1164 -74.1376 23° Northeast  Level FlightAware Approximate
07:56PM 40.1833 -74.1000 37° Northeast 164 189 5,000  Level New York TRACON
07:57PM 40.1578 -74.1144 23° Northeast  Level FlightAware Approximate
07:57PM 40.2333 -74.0667 27° Northeast 163 188 5,000  Level New York TRACON
07:58PM 40.1915 -74.0752 49° Northeast  Level Estimated
07:58PM 40.2667 -74.0333 37° Northeast 166 191 5,000  Level New York TRACON
07:59PM 40.3167 -74.0167 14° North 165 190 5,000  Level New York TRACON
08:00PM 40.3500 -73.9833 37° Northeast 163 188 5,000  Level New York TRACON
08:01PM 40.3833 -73.9500 37° Northeast 161 185 5,000 180 Level New York TRACON
08:02PM 40.4333 -73.9167 27° Northeast 149 171 5,400 360 Climbing New York TRACON
08:03PM 40.4667 -73.9000 21° North 151 174 5,800 360 Climbing New York TRACON
08:04PM 40.5000 -73.8667 37° Northeast 150 173 6,200 420 Climbing New York TRACON
08:05PM 40.5333 -73.8500 21° North 145 167 6,600 420 Climbing New York TRACON
08:06PM 40.5667 -73.8167 37° Northeast 141 162 7,000 180 Climbing New York TRACON
08:07PM 40.6167 -73.7833 27° Northeast 147 169 7,000  Level New York TRACON
08:08PM 40.6333 -73.7667 37° Northeast 140 161 7,000  Level New York TRACON
08:09PM 40.6833 -73.7167 37° Northeast 152 175 7,000  Level New York TRACON
08:10PM 40.7167 -73.6833 37° Northeast 163 188 7,000  Level New York TRACON
08:11PM 40.7500 -73.6333 49° Northeast 164 189 7,000  Level New York TRACON
08:12PM 40.7833 -73.6000 37° Northeast 166 191 7,000  Level New York TRACON
08:13PM 40.8333 -73.5500 37° Northeast 164 189 7,000  Level New York TRACON
08:14PM 40.8333 -73.5000 90° East 166 191 7,000  Level New York TRACON
08:15PM 40.8500 -73.4500 66° East 169 194 7,000  Level New York TRACON
08:16PM 40.8500 -73.3833 90° East 168 193 7,000  Level New York TRACON
08:17PM 40.8833 -73.3333 49° Northeast 171 197 7,000  Level New York TRACON
08:18PM 40.9167 -73.3000 37° Northeast 171 197 7,000  Level New York TRACON
08:19PM 40.9667 -73.2667 27° Northeast 173 199 7,000  Level New York TRACON
08:20PM 41.0000 -73.2333 37° Northeast 173 199 7,000  Level New York TRACON
08:21PM 41.0333 -73.1833 49° Northeast 173 199 7,000  Level New York TRACON
08:22PM 41.0667 -73.1500 37° Northeast 171 197 7,000  Level New York TRACON
08:23PM 41.1000 -73.1167 37° Northeast 172 198 7,000  Level New York TRACON
08:24PM 41.1500 -73.0667 37° Northeast 170 196 7,000  Level New York TRACON
08:25PM 41.1833 -73.0333 37° Northeast 172 198 7,000  Level New York TRACON
08:26PM 41.2167 -73.0000 37° Northeast 170 196 7,000  Level New York TRACON
08:28PM 41.2719 -72.9372 40° Northeast 170 196 7,000  Level Boston Center
08:29PM 41.3075 -72.8989 39° Northeast 168 193 7,000  Level Boston Center
08:30PM 41.3408 -72.8658 37° Northeast 168 193 7,000  Level Boston Center
08:31PM 41.3806 -72.8247 38° Northeast 167 192 7,000  Level Boston Center
08:32PM 41.4183 -72.7861 37° Northeast 169 194 7,000  Level Boston Center
08:33PM 41.4581 -72.7447 38° Northeast 170 196 7,000  Level Boston Center
08:34PM 41.4956 -72.7006 41° Northeast 171 197 7,000  Level Boston Center
08:35PM 41.5311 -72.6619 39° Northeast 170 196 7,000  Level Boston Center
08:36PM 41.5686 -72.6233 38° Northeast 171 197 7,000  Level Boston Center
08:37PM 41.6064 -72.5844 38° Northeast 168 193 7,000  Level Boston Center
08:38PM 41.6333 -72.5511 43° Northeast 161 185 7,000  Level Boston Center
08:39PM 41.6772 -72.5039 39° Northeast 165 190 7,000  Level Boston Center
08:40PM 41.7106 -72.4678 39° Northeast 167 192 7,000  Level Boston Center
08:41PM 41.7522 -72.4206 40° Northeast 168 193 7,000  Level Boston Center
08:42PM 41.7919 -72.3817 36° Northeast 167 192 7,000  Level Boston Center
08:43PM 41.8211 -72.3453 43° Northeast 167 192 7,000  Level Boston Center
08:44PM 41.8708 -72.2922 38° Northeast 166 191 7,000  Level Boston Center
08:45PM 41.9022 -72.2589 38° Northeast 167 192 7,000  Level Boston Center
08:46PM 41.9397 -72.2139 42° Northeast 166 191 7,000  Level Boston Center
08:47PM 41.9750 -72.1747 40° Northeast 165 190 7,000 -180 Level Boston Center
08:48PM 42.0081 -72.1383 39° Northeast 173 199 6,700 -420 Descending Boston Center
08:49PM 42.0394 -72.1047 38° Northeast 179 206 6,300 -600 Descending Boston Center
08:50PM 42.0789 -72.0625 38° Northeast 183 211 5,700 -540 Descending Boston Center
08:51PM 42.1161 -72.0203 40° Northeast 177 204 5,300 -360 Descending Boston Center
08:52PM 42.1514 -71.9781 42° Northeast 162 186 5,000 -180 Descending Boston Center
08:53PM 42.1825 -71.9469 37° Northeast 158 182 5,000  Level Boston Center
08:54PM 42.2178 -71.9047 42° Northeast 162 186 5,000  Level Boston Center
08:55PM 42.2667 -71.8333 47° Northeast 162 186 5,000 -60 Level KA90
08:56PM 42.3167 -71.8000 26° Northeast 163 188 4,900 -60 Descending KA90
08:58PM 42.3667 -71.7333 45° Northeast 163 188 4,900 -240 Level KA90
08:58PM 42.3833 -71.7167 36° Northeast 167 192 4,500 -660 Descending KA90
09:00PM 42.4333 -71.6667 36° Northeast 179 206 3,800 -600 Descending KA90
09:01PM 42.4667 -71.6333 36° Northeast 158 182 3,300 -420 Descending KA90
09:02PM 42.4833 -71.5833 66° East 147 169 3,000 -180 Descending KA90
09:03PM 42.5000 -71.5333 66° East 137 158 3,000  Level KA90
09:04PM 42.4833 -71.5000 124° Southeast 117 135 3,000 -360 Level KA90
09:05PM 42.4833 -71.4500 90° East 114 131 2,400 -600 Descending KA90
09:05PM 42.4833 -71.4167 90° East 114 131 1,900 -600 Descending KA90
09:07PM 42.4833 -71.3833 90° East 111 128 1,300 -600 Descending KA90
09:07PM 42.4833 -71.3500 90° East 110 127 800 -600 Descending KA90
09:09PM 42.4667 -71.2833 66° East  Level FlightAware Approximate
09:16PM 42.4699 -71.2890 66° East  Level Estimated
09:17PM 42.4667 -71.2833 66° East  Level FlightAware Approximate